Time;durP1;ratioP1;P1;durP2;ratioP2;P2;SDS_P1;SDS_P2;PMS_P1;PMS_P2;Temp;Humidity;BMP_temperature;BMP_pressure;BME280_temperature;BME280_humidity;BME280_pressure;Samples;Min_cycle;Max_cycle;Signal;HPM_P1;HPM_P2
2022/02/23 00:00:15;;;;;;;;;;;6.40;1.00;;;;;;5073603;28;19924;-54
2022/02/23 00:02:41;;;;;;;;;;;6.30;1.00;;;;;;5072304;28;20381;-52
2022/02/23 00:05:08;;;;;;;;;;;6.30;1.00;;;;;;5072278;28;19924;-55
2022/02/23 00:07:35;;;;;;;;;;;6.20;1.00;;;;;;5072162;28;20375;-49
2022/02/23 00:10:01;;;;;;;;;;;6.10;1.00;;;;;;5072322;28;20308;-52
2022/02/23 00:12:28;;;;;;;;;;;6.10;1.00;;;;;;5072822;28;19924;-54
2022/02/23 00:14:57;;;;;;;;;;;6.00;1.00;;;;;;5072864;28;19921;-54
2022/02/23 00:17:25;;;;;;;;;;;6.00;1.00;;;;;;5072199;28;20493;-53
2022/02/23 00:19:51;;;;;;;;;;;5.90;1.00;;;;;;5072435;28;19974;-54
2022/02/23 00:22:18;;;;;;;;;;;5.90;1.00;;;;;;5072629;28;19924;-52
2022/02/23 00:24:44;;;;;;;;;;;5.90;1.00;;;;;;5072049;28;19927;-53
2022/02/23 00:27:11;;;;;;;;;;;5.80;1.00;;;;;;5071840;28;20125;-55
2022/02/23 00:29:38;;;;;;;;;;;5.80;1.00;;;;;;5072034;28;19921;-56
2022/02/23 00:32:06;;;;;;;;;;;5.80;1.00;;;;;;5071472;28;19974;-54
2022/02/23 00:34:33;;;;;;;;;;;5.70;1.00;;;;;;5071661;28;19947;-52
2022/02/23 00:36:59;;;;;;;;;;;5.70;1.00;;;;;;5071657;28;19927;-55
2022/02/23 00:39:26;;;;;;;;;;;5.70;1.00;;;;;;5071887;28;20439;-56
2022/02/23 00:41:53;;;;;;;;;;;5.60;1.00;;;;;;5072425;28;19920;-56
2022/02/23 00:44:20;;;;;;;;;;;5.70;1.00;;;;;;5071578;28;19920;-55
2022/02/23 00:46:46;;;;;;;;;;;5.60;1.00;;;;;;5071579;28;19927;-53
2022/02/23 00:49:14;;;;;;;;;;;5.60;1.00;;;;;;5071730;28;19921;-57
2022/02/23 00:51:41;;;;;;;;;;;5.60;1.00;;;;;;5071795;28;19920;-54
2022/02/23 00:54:07;;;;;;;;;;;5.60;1.00;;;;;;5071414;28;19920;-56
2022/02/23 00:56:34;;;;;;;;;;;5.60;1.00;;;;;;5071668;28;19920;-53
2022/02/23 00:59:00;;;;;;;;;;;5.50;1.00;;;;;;5071648;28;19942;-55
2022/02/23 01:01:27;;;;;;;;;;;5.50;1.00;;;;;;5071509;28;19924;-54
2022/02/23 01:03:53;;;;;;;;;;;5.50;1.00;;;;;;5071450;28;19986;-53
2022/02/23 01:06:22;;;;;;;;;;;5.50;1.00;;;;;;5071489;28;19920;-52
2022/02/23 01:08:48;;;;;;;;;;;5.40;1.00;;;;;;5072234;28;19921;-53
2022/02/23 01:11:16;;;;;;;;;;;5.40;1.00;;;;;;5071690;28;19920;-52
2022/02/23 01:13:42;;;;;;;;;;;5.30;1.00;;;;;;5071827;28;19968;-54
2022/02/23 01:16:09;;;;;;;;;;;5.30;1.00;;;;;;5072185;28;19974;-52
2022/02/23 01:18:36;;;;;;;;;;;5.30;1.00;;;;;;5071481;28;19921;-52
2022/02/23 01:21:02;;;;;;;;;;;5.30;1.00;;;;;;5071699;28;19925;-59
2022/02/23 01:23:30;;;;;;;;;;;5.30;1.00;;;;;;5072110;28;19920;-53
2022/02/23 01:25:57;;;;;;;;;;;5.30;1.00;;;;;;5071808;28;19925;-55
2022/02/23 01:28:23;;;;;;;;;;;5.30;1.00;;;;;;5071087;28;19924;-55
2022/02/23 01:30:50;;;;;;;;;;;5.20;1.00;;;;;;5072110;28;19943;-58
2022/02/23 01:33:16;;;;;;;;;;;5.30;1.00;;;;;;5072332;28;19950;-56
2022/02/23 01:35:43;;;;;;;;;;;5.30;1.00;;;;;;5071652;28;19928;-52
2022/02/23 01:38:09;;;;;;;;;;;5.20;1.00;;;;;;5071027;28;19966;-55
2022/02/23 01:40:37;;;;;;;;;;;5.10;1.00;;;;;;5071045;28;20396;-57
2022/02/23 01:43:04;;;;;;;;;;;5.10;1.00;;;;;;5070894;28;19928;-52
2022/02/23 01:45:30;;;;;;;;;;;5.10;1.00;;;;;;5071157;28;19946;-53
2022/02/23 01:47:57;;;;;;;;;;;5.10;1.00;;;;;;5070916;28;19920;-54
2022/02/23 01:50:23;;;;;;;;;;;5.10;1.00;;;;;;5070906;28;20371;-55
2022/02/23 01:52:50;;;;;;;;;;;5.10;1.00;;;;;;5071067;28;19924;-52
2022/02/23 01:55:16;;;;;;;;;;;5.10;1.00;;;;;;5070853;28;19966;-55
2022/02/23 01:57:44;;;;;;;;;;;5.00;1.00;;;;;;5070970;28;19942;-55
2022/02/23 02:00:12;;;;;;;;;;;5.00;1.00;;;;;;5073547;28;19943;-55
2022/02/23 02:02:39;;;;;;;;;;;5.00;1.00;;;;;;5074549;28;20011;-54
2022/02/23 02:05:06;;;;;;;;;;;5.00;1.00;;;;;;5074636;28;19928;-51
2022/02/23 02:07:33;;;;;;;;;;;4.90;1.00;;;;;;5074343;28;19927;-52
2022/02/23 02:09:59;;;;;;;;;;;4.90;1.00;;;;;;5074908;28;20272;-53
2022/02/23 02:12:26;;;;;;;;;;;4.80;1.00;;;;;;5075030;28;19943;-51
2022/02/23 02:14:54;;;;;;;;;;;4.80;1.00;;;;;;5074683;28;20346;-52
2022/02/23 02:17:21;;;;;;;;;;;4.70;1.00;;;;;;5074373;28;20291;-53
2022/02/23 02:19:47;;;;;;;;;;;4.70;1.00;;;;;;5074032;28;19981;-50
2022/02/23 02:22:15;;;;;;;;;;;4.60;1.00;;;;;;5074332;28;20410;-53
2022/02/23 02:24:42;;;;;;;;;;;4.60;1.00;;;;;;5073827;28;19929;-51
2022/02/23 02:27:10;;;;;;;;;;;4.50;1.00;;;;;;5073802;28;20398;-54
2022/02/23 02:29:37;;;;;;;;;;;4.50;1.00;;;;;;5074127;28;20387;-50
2022/02/23 02:32:04;;;;;;;;;;;4.40;17.80;;;;;;5074125;28;19920;-52
2022/02/23 02:34:30;;;;;;;;;;;4.40;35.50;;;;;;5073725;28;19920;-50
2022/02/23 02:36:58;;;;;;;;;;;4.30;50.70;;;;;;5073343;28;19920;-54
2022/02/23 02:39:26;;;;;;;;;;;4.30;71.20;;;;;;5073830;28;19920;-51
2022/02/23 02:41:53;;;;;;;;;;;4.30;78.50;;;;;;5073688;28;19924;-56
2022/02/23 02:44:20;;;;;;;;;;;4.30;86.70;;;;;;5074069;28;19921;-55
2022/02/23 02:46:46;;;;;;;;;;;4.30;94.10;;;;;;5073873;28;20420;-53
2022/02/23 02:49:13;;;;;;;;;;;4.30;97.10;;;;;;5073527;28;20567;-53
2022/02/23 02:51:40;;;;;;;;;;;4.20;99.90;;;;;;5073839;28;19920;-56
2022/02/23 02:54:07;;;;;;;;;;;4.20;99.90;;;;;;5073881;28;19920;-52
2022/02/23 02:56:36;;;;;;;;;;;4.10;99.90;;;;;;5073676;28;19920;-51
2022/02/23 02:59:02;;;;;;;;;;;4.20;99.90;;;;;;5073597;28;19977;-53
2022/02/23 03:01:30;;;;;;;;;;;4.20;99.90;;;;;;5073805;28;19920;-52
2022/02/23 03:03:57;;;;;;;;;;;4.10;99.90;;;;;;5073331;28;19924;-55
2022/02/23 03:06:23;;;;;;;;;;;4.10;99.90;;;;;;5073080;28;19924;-55
2022/02/23 03:08:51;;;;;;;;;;;4.10;99.90;;;;;;5073450;28;20375;-52
2022/02/23 03:11:17;;;;;;;;;;;4.10;99.90;;;;;;5073354;28;19928;-53
2022/02/23 03:13:45;;;;;;;;;;;4.10;99.90;;;;;;5073170;28;19973;-54
2022/02/23 03:16:12;;;;;;;;;;;4.10;99.90;;;;;;5073253;28;20363;-53
2022/02/23 03:18:39;;;;;;;;;;;4.10;99.90;;;;;;5073317;28;20383;-53
2022/02/23 03:21:05;;;;;;;;;;;4.10;99.90;;;;;;5073559;28;19925;-52
2022/02/23 03:23:32;;;;;;;;;;;4.10;99.90;;;;;;5073112;28;19978;-54
2022/02/23 03:25:59;;;;;;;;;;;4.10;99.90;;;;;;5073180;28;19924;-55
2022/02/23 03:28:26;;;;;;;;;;;4.20;99.90;;;;;;5073910;28;19924;-55
2022/02/23 03:30:53;;;;;;;;;;;4.10;99.90;;;;;;5073817;28;19924;-55
2022/02/23 03:33:20;;;;;;;;;;;4.10;99.90;;;;;;5073286;28;19994;-55
2022/02/23 03:35:47;;;;;;;;;;;4.20;99.90;;;;;;5073151;28;19953;-55
2022/02/23 03:38:14;;;;;;;;;;;4.10;99.90;;;;;;5073366;28;19927;-54
2022/02/23 03:40:41;;;;;;;;;;;4.10;99.90;;;;;;5073401;28;19920;-54
2022/02/23 03:43:08;;;;;;;;;;;4.10;99.90;;;;;;5073754;28;19924;-56
2022/02/23 03:45:34;;;;;;;;;;;4.10;99.90;;;;;;5072981;28;20371;-51
2022/02/23 03:48:02;;;;;;;;;;;4.10;99.90;;;;;;5072920;28;20363;-55
2022/02/23 03:50:29;;;;;;;;;;;4.00;99.90;;;;;;5073038;28;19920;-54
2022/02/23 03:52:55;;;;;;;;;;;4.00;99.90;;;;;;5073003;28;20379;-52
2022/02/23 03:55:22;;;;;;;;;;;4.00;99.90;;;;;;5072737;28;20056;-51
2022/02/23 03:57:48;;;;;;;;;;;4.00;99.90;;;;;;5072503;28;19924;-55
2022/02/23 04:00:16;;;;;;;;;;;4.00;99.90;;;;;;5072379;28;19974;-52
2022/02/23 04:02:43;;;;;;;;;;;4.00;99.90;;;;;;5072526;28;19924;-52
2022/02/23 04:05:11;;;;;;;;;;;3.90;99.90;;;;;;5072311;28;19928;-53
2022/02/23 04:07:38;;;;;;;;;;;3.90;99.90;;;;;;5072207;28;19920;-54
2022/02/23 04:10:05;;;;;;;;;;;3.90;99.90;;;;;;5072391;28;19920;-51
2022/02/23 04:12:32;;;;;;;;;;;3.90;99.90;;;;;;5072061;28;19928;-50
2022/02/23 04:14:58;;;;;;;;;;;3.80;99.90;;;;;;5072136;28;19974;-53
2022/02/23 04:17:25;;;;;;;;;;;3.80;99.90;;;;;;5072174;28;19967;-56
2022/02/23 04:19:52;;;;;;;;;;;3.80;99.90;;;;;;5072670;28;19925;-58
2022/02/23 04:22:19;;;;;;;;;;;3.80;99.90;;;;;;5072346;28;19920;-51
2022/02/23 04:24:46;;;;;;;;;;;3.80;99.90;;;;;;5072373;28;19928;-54
2022/02/23 04:27:12;;;;;;;;;;;3.70;99.90;;;;;;5072079;28;19977;-53
2022/02/23 04:29:39;;;;;;;;;;;3.80;99.90;;;;;;5071925;28;19924;-54
2022/02/23 04:32:06;;;;;;;;;;;3.70;99.90;;;;;;5072512;28;19920;-52
2022/02/23 04:34:32;;;;;;;;;;;3.70;99.90;;;;;;5072367;28;19924;-57
2022/02/23 04:36:59;;;;;;;;;;;3.70;99.90;;;;;;5072323;28;19924;-56
2022/02/23 04:39:27;;;;;;;;;;;3.60;99.90;;;;;;5072619;28;19924;-57
2022/02/23 04:41:53;;;;;;;;;;;3.60;99.90;;;;;;5071686;28;20383;-54
2022/02/23 04:44:20;;;;;;;;;;;3.50;99.90;;;;;;5072092;28;19928;-56
2022/02/23 04:46:46;;;;;;;;;;;3.50;99.90;;;;;;5071584;28;20363;-52
2022/02/23 04:49:13;;;;;;;;;;;3.50;99.90;;;;;;5071832;28;19924;-53
2022/02/23 04:51:39;;;;;;;;;;;3.40;99.90;;;;;;5072207;28;19943;-54
2022/02/23 04:54:06;;;;;;;;;;;3.40;99.90;;;;;;5071862;28;19974;-55
2022/02/23 04:56:33;;;;;;;;;;;3.40;99.90;;;;;;5071844;28;19924;-56
2022/02/23 04:59:00;;;;;;;;;;;3.30;99.90;;;;;;5072031;28;19920;-53
2022/02/23 05:01:27;;;;;;;;;;;3.30;99.90;;;;;;5072144;28;19924;-54
2022/02/23 05:03:53;;;;;;;;;;;3.20;99.90;;;;;;5071916;28;19920;-53
2022/02/23 05:06:19;;;;;;;;;;;3.20;99.90;;;;;;5071862;28;20504;-53
2022/02/23 05:08:46;;;;;;;;;;;3.20;99.90;;;;;;5072121;28;19950;-53
2022/02/23 05:11:13;;;;;;;;;;;3.20;99.90;;;;;;5071367;28;20306;-56
2022/02/23 05:13:40;;;;;;;;;;;3.10;99.90;;;;;;5071293;28;19920;-55
2022/02/23 05:16:07;;;;;;;;;;;3.10;99.90;;;;;;5071083;28;19974;-57
2022/02/23 05:18:33;;;;;;;;;;;3.10;99.90;;;;;;5071333;28;20287;-52
2022/02/23 05:21:01;;;;;;;;;;;3.10;99.90;;;;;;5071695;28;19970;-50
2022/02/23 05:23:28;;;;;;;;;;;3.20;99.90;;;;;;5071742;28;19970;-55
2022/02/23 05:25:56;;;;;;;;;;;3.20;99.90;;;;;;5071357;28;19924;-56
2022/02/23 05:28:23;;;;;;;;;;;3.20;99.90;;;;;;5071644;28;20365;-54
2022/02/23 05:30:51;;;;;;;;;;;3.20;99.90;;;;;;5071576;28;19974;-56
2022/02/23 05:33:18;;;;;;;;;;;3.20;99.90;;;;;;5071226;28;20294;-55
2022/02/23 05:35:45;;;;;;;;;;;3.20;99.90;;;;;;5074469;28;19950;-55
2022/02/23 05:38:12;;;;;;;;;;;3.20;99.90;;;;;;5074808;28;20329;-57
2022/02/23 05:40:38;;;;;;;;;;;3.10;99.90;;;;;;5075396;28;19920;-54
2022/02/23 05:43:05;;;;;;;;;;;3.20;99.90;;;;;;5075656;28;19974;-57
2022/02/23 05:45:31;;;;;;;;;;;3.20;99.90;;;;;;5075468;28;19989;-57
2022/02/23 05:47:59;;;;;;;;;;;3.20;99.90;;;;;;5076671;28;19950;-62
2022/02/23 05:50:25;;;;;;;;;;;3.20;99.90;;;;;;5077684;28;19928;-56
2022/02/23 05:52:52;;;;;;;;;;;3.20;99.90;;;;;;5078932;28;19982;-56
2022/02/23 05:55:18;;;;;;;;;;;3.10;99.90;;;;;;5076055;28;19920;-56
2022/02/23 05:57:45;;;;;;;;;;;3.10;99.90;;;;;;5075564;28;19990;-56
2022/02/23 06:00:12;;;;;;;;;;;3.10;99.90;;;;;;5075803;28;19920;-56
2022/02/23 06:02:39;;;;;;;;;;;3.10;99.90;;;;;;5075467;28;19920;-57
2022/02/23 06:05:07;;;;;;;;;;;3.10;99.90;;;;;;5075382;28;19920;-55
2022/02/23 06:07:34;;;;;;;;;;;3.10;99.90;;;;;;5075033;28;20268;-55
2022/02/23 06:10:01;;;;;;;;;;;3.10;99.90;;;;;;5075621;28;19924;-57
2022/02/23 06:12:27;;;;;;;;;;;3.10;99.90;;;;;;5074708;28;19992;-55
2022/02/23 06:14:54;;;;;;;;;;;3.10;99.90;;;;;;5074613;28;19989;-56
2022/02/23 06:17:20;;;;;;;;;;;3.10;99.90;;;;;;5074658;28;19925;-56
2022/02/23 06:19:47;;;;;;;;;;;3.10;99.90;;;;;;5074360;28;19927;-56
2022/02/23 06:22:15;;;;;;;;;;;3.10;99.90;;;;;;5074826;28;19924;-57
2022/02/23 06:24:41;;;;;;;;;;;3.10;99.90;;;;;;5073824;28;20386;-55
2022/02/23 06:27:09;;;;;;;;;;;3.00;99.90;;;;;;5074453;28;19951;-54
2022/02/23 06:29:36;;;;;;;;;;;3.00;99.90;;;;;;5074544;28;20014;-56
2022/02/23 06:32:03;;;;;;;;;;;3.00;99.90;;;;;;5073635;28;19924;-56
2022/02/23 06:34:30;;;;;;;;;;;3.00;99.90;;;;;;5073155;28;19920;-55
2022/02/23 06:37:02;;;;;;;;;;;3.00;99.90;;;;;;5073670;28;19920;-56
2022/02/23 06:39:30;;;;;;;;;;;3.00;99.90;;;;;;5074031;28;19921;-56
2022/02/23 06:41:56;;;;;;;;;;;3.00;99.90;;;;;;5074309;28;20009;-55
2022/02/23 06:44:23;;;;;;;;;;;3.00;99.90;;;;;;5073827;28;19924;-56
2022/02/23 06:46:50;;;;;;;;;;;3.00;99.90;;;;;;5073216;28;19924;-53
2022/02/23 06:49:16;;;;;;;;;;;3.00;99.90;;;;;;5073809;28;19930;-52
2022/02/23 06:51:43;;;;;;;;;;;3.00;99.90;;;;;;5073526;28;19932;-56
2022/02/23 06:54:10;;;;;;;;;;;3.00;99.90;;;;;;5073934;28;19973;-54
2022/02/23 06:56:38;;;;;;;;;;;3.00;99.90;;;;;;5073333;28;19920;-55
2022/02/23 06:59:05;;;;;;;;;;;3.00;99.90;;;;;;5073771;28;19924;-56
2022/02/23 07:01:34;;;;;;;;;;;3.00;99.90;;;;;;5073558;28;19920;-55
2022/02/23 07:04:01;;;;;;;;;;;3.10;99.90;;;;;;5073593;28;20237;-55
2022/02/23 07:06:28;;;;;;;;;;;3.10;99.90;;;;;;5072957;28;19924;-55
2022/02/23 07:08:54;;;;;;;;;;;3.20;99.90;;;;;;5073494;28;19931;-55
2022/02/23 07:11:23;;;;;;;;;;;3.20;99.90;;;;;;5073989;28;19974;-56
2022/02/23 07:13:51;;;;;;;;;;;3.20;99.90;;;;;;5073161;28;19927;-56
2022/02/23 07:16:20;;;;;;;;;;;3.20;99.90;;;;;;5073559;28;19924;-56
2022/02/23 07:18:47;;;;;;;;;;;3.30;99.90;;;;;;5073461;28;19970;-55
2022/02/23 07:21:13;;;;;;;;;;;3.30;99.90;;;;;;5073401;28;19970;-56
2022/02/23 07:23:40;;;;;;;;;;;3.30;99.90;;;;;;5074294;28;20293;-56
2022/02/23 07:26:07;;;;;;;;;;;3.40;99.90;;;;;;5073761;28;20379;-57
2022/02/23 07:28:33;;;;;;;;;;;3.40;99.90;;;;;;5073274;28;19970;-55
2022/02/23 07:31:03;;;;;;;;;;;3.50;99.90;;;;;;5073291;28;19925;-56
2022/02/23 07:33:30;;;;;;;;;;;3.60;99.90;;;;;;5072958;28;20207;-54
2022/02/23 07:35:57;;;;;;;;;;;3.60;99.90;;;;;;5072697;28;19927;-54
2022/02/23 07:38:23;;;;;;;;;;;3.70;99.90;;;;;;5073053;28;20014;-55
2022/02/23 07:40:50;;;;;;;;;;;3.70;99.90;;;;;;5072546;28;19920;-54
2022/02/23 07:43:16;;;;;;;;;;;3.80;99.90;;;;;;5072706;28;19946;-56
2022/02/23 07:45:43;;;;;;;;;;;3.80;99.90;;;;;;5072693;28;19970;-57
2022/02/23 07:48:11;;;;;;;;;;;3.90;99.90;;;;;;5072527;28;19920;-55
2022/02/23 07:50:38;;;;;;;;;;;4.00;99.90;;;;;;5072756;28;19920;-55
2022/02/23 07:53:05;;;;;;;;;;;4.10;99.90;;;;;;5072917;28;19975;-55
2022/02/23 07:55:31;;;;;;;;;;;4.20;99.90;;;;;;5072743;28;19946;-55
2022/02/23 07:57:58;;;;;;;;;;;4.20;99.90;;;;;;5071463;28;19924;-55
2022/02/23 08:00:27;;;;;;;;;;;4.30;99.90;;;;;;5072536;28;19928;-57
2022/02/23 08:02:54;;;;;;;;;;;4.30;99.90;;;;;;5072309;28;19927;-56
2022/02/23 08:05:24;;;;;;;;;;;4.40;99.90;;;;;;5072480;28;20357;-54
2022/02/23 08:07:52;;;;;;;;;;;4.50;99.90;;;;;;5071524;28;19928;-56
2022/02/23 08:10:19;;;;;;;;;;;4.60;99.90;;;;;;5072100;28;20386;-52
2022/02/23 08:12:45;;;;;;;;;;;4.60;99.90;;;;;;5072423;28;20364;-55
2022/02/23 08:20:50;;;;;;;;;;;4.90;99.90;;;;;;5047552;28;19969;-57
2022/02/23 08:23:17;;;;;;;;;;;5.00;99.90;;;;;;5072012;28;19974;-53
2022/02/23 08:25:43;;;;;;;;;;;5.00;99.90;;;;;;5072329;28;19924;-56
2022/02/23 08:28:10;;;;;;;;;;;5.10;99.90;;;;;;5071640;28;19973;-57
2022/02/23 08:30:37;;;;;;;;;;;5.20;99.90;;;;;;5072657;28;19921;-57
2022/02/23 08:33:03;;;;;;;;;;;5.30;99.90;;;;;;5071875;28;20464;-56
2022/02/23 08:35:30;;;;;;;;;;;5.40;84.50;;;;;;5072030;28;19924;-54
2022/02/23 08:37:58;;;;;;;;;;;5.50;73.00;;;;;;5072011;28;19950;-57
2022/02/23 08:40:26;;;;;;;;;;;5.60;61.50;;;;;;5071741;28;19928;-57
2022/02/23 08:42:53;;;;;;;;;;;5.70;54.60;;;;;;5071859;28;20328;-56
2022/02/23 08:45:20;;;;;;;;;;;5.80;45.50;;;;;;5071511;28;19966;-57
2022/02/23 08:47:46;;;;;;;;;;;5.90;23.90;;;;;;5072489;28;19920;-58
2022/02/23 08:50:13;;;;;;;;;;;6.00;16.40;;;;;;5073884;28;19924;-57
2022/02/23 08:52:39;;;;;;;;;;;6.00;1.00;;;;;;5073504;28;19920;-53
2022/02/23 08:55:09;;;;;;;;;;;6.20;1.00;;;;;;5071916;28;19928;-57
2022/02/23 08:57:36;;;;;;;;;;;6.30;1.00;;;;;;5071625;28;20023;-56
2022/02/23 09:00:03;;;;;;;;;;;6.30;1.00;;;;;;5071912;28;19924;-57
2022/02/23 09:02:29;;;;;;;;;;;6.40;1.00;;;;;;5072218;28;19920;-55
2022/02/23 09:04:56;;;;;;;;;;;6.50;1.00;;;;;;5072230;28;20012;-56
2022/02/23 09:07:22;;;;;;;;;;;6.60;1.00;;;;;;5071602;28;19985;-57
2022/02/23 09:09:49;;;;;;;;;;;6.70;1.00;;;;;;5075699;28;19924;-58
2022/02/23 09:12:16;;;;;;;;;;;6.80;1.00;;;;;;5075334;28;20379;-55
2022/02/23 09:14:43;;;;;;;;;;;6.80;1.00;;;;;;5075429;28;20001;-56
2022/02/23 09:17:10;;;;;;;;;;;6.90;99.90;;;;;;5074964;28;19928;-56
2022/02/23 09:19:36;;;;;;;;;;;6.90;99.90;;;;;;5075563;28;19946;-54
2022/02/23 09:22:03;;;;;;;;;;;7.00;99.90;;;;;;5075261;28;19920;-58
2022/02/23 09:24:30;;;;;;;;;;;7.10;25.10;;;;;;5075902;28;19966;-54
2022/02/23 09:26:56;;;;;;;;;;;7.20;1.00;;;;;;5074912;28;19921;-54
2022/02/23 09:29:26;;;;;;;;;;;7.30;1.00;;;;;;5074871;28;19978;-57
2022/02/23 09:31:53;;;;;;;;;;;7.30;99.90;;;;;;5075416;28;20328;-55
2022/02/23 09:34:23;;;;;;;;;;;7.40;1.00;;;;;;5074877;28;19920;-52
2022/02/23 09:36:50;;;;;;;;;;;7.50;76.20;;;;;;5075340;28;19963;-53
2022/02/23 09:39:18;;;;;;;;;;;7.50;99.90;;;;;;5074918;28;19920;-55
2022/02/23 09:41:46;;;;;;;;;;;7.50;1.00;;;;;;5075387;28;19928;-56
2022/02/23 09:44:16;;;;;;;;;;;7.60;1.00;;;;;;5075186;28;19935;-56
2022/02/23 09:46:44;;;;;;;;;;;7.70;1.00;;;;;;5075259;28;20444;-57
2022/02/23 09:49:11;;;;;;;;;;;7.70;1.00;;;;;;5075476;28;20337;-55
2022/02/23 09:51:37;;;;;;;;;;;7.80;99.90;;;;;;5074862;28;19928;-56
2022/02/23 09:54:04;;;;;;;;;;;7.80;99.90;;;;;;5074775;28;19924;-53
2022/02/23 09:56:32;;;;;;;;;;;7.90;1.00;;;;;;5074300;28;20387;-54
2022/02/23 09:58:58;;;;;;;;;;;8.00;99.90;;;;;;5074534;28;19924;-53
2022/02/23 10:01:25;;;;;;;;;;;8.00;99.90;;;;;;5074720;28;19921;-56
2022/02/23 10:03:54;;;;;;;;;;;8.10;1.00;;;;;;5074929;28;19924;-58
2022/02/23 10:06:21;;;;;;;;;;;8.10;99.90;;;;;;5074255;28;19920;-56
2022/02/23 10:08:48;;;;;;;;;;;8.20;1.00;;;;;;5074652;28;19966;-55
2022/02/23 10:11:19;;;;;;;;;;;8.20;99.90;;;;;;5074757;28;19920;-54
2022/02/23 10:13:49;;;;;;;;;;;8.30;66.10;;;;;;5074771;28;20003;-55
2022/02/23 10:16:16;;;;;;;;;;;8.40;99.90;;;;;;5073820;28;19924;-56
2022/02/23 10:18:42;;;;;;;;;;;8.50;1.00;;;;;;5074262;28;19920;-54
2022/02/23 10:21:10;;;;;;;;;;;8.60;1.00;;;;;;5073371;28;19920;-57
2022/02/23 10:23:37;;;;;;;;;;;8.70;1.00;;;;;;5074287;28;19920;-55
2022/02/23 10:26:09;;;;;;;;;;;8.70;99.90;;;;;;5074122;28;19921;-56
2022/02/23 10:28:37;;;;;;;;;;;8.60;99.90;;;;;;5073969;28;19995;-55
2022/02/23 10:31:06;;;;;;;;;;;8.70;99.90;;;;;;5073529;28;20030;-54
2022/02/23 10:33:34;;;;;;;;;;;8.70;1.00;;;;;;5073984;28;19982;-55
2022/02/23 10:36:02;;;;;;;;;;;8.70;1.00;;;;;;5073717;28;19928;-57
2022/02/23 10:38:33;;;;;;;;;;;8.60;1.00;;;;;;5073214;28;19931;-56
2022/02/23 10:41:00;;;;;;;;;;;8.60;1.00;;;;;;5074241;28;20363;-54
2022/02/23 10:43:28;;;;;;;;;;;8.70;1.00;;;;;;5073450;28;20349;-57
2022/02/23 10:46:01;;;;;;;;;;;8.80;1.00;;;;;;5073491;28;20579;-56
2022/02/23 10:48:35;;;;;;;;;;;8.90;1.00;;;;;;5074009;28;19966;-53
2022/02/23 10:51:03;;;;;;;;;;;9.10;1.00;;;;;;5073875;28;20385;-56
2022/02/23 10:53:31;;;;;;;;;;;9.20;1.00;;;;;;5073407;28;19920;-57
2022/02/23 10:55:59;;;;;;;;;;;9.10;99.90;;;;;;5072900;28;19920;-55
2022/02/23 10:58:26;;;;;;;;;;;8.90;99.90;;;;;;5073451;28;19920;-56
2022/02/23 11:00:54;;;;;;;;;;;8.90;1.00;;;;;;5073645;28;19921;-55
2022/02/23 11:03:21;;;;;;;;;;;9.10;1.00;;;;;;5074251;28;20420;-57
2022/02/23 11:05:48;;;;;;;;;;;9.00;99.90;;;;;;5073910;28;19924;-58
2022/02/23 11:08:15;;;;;;;;;;;9.00;99.90;;;;;;5074546;28;19921;-56
2022/02/23 11:10:44;;;;;;;;;;;9.10;99.90;;;;;;5073403;28;19920;-56
2022/02/23 11:13:12;;;;;;;;;;;9.10;99.90;;;;;;5074345;28;20341;-56
2022/02/23 11:15:42;;;;;;;;;;;9.20;99.90;;;;;;5074469;28;19926;-57
2022/02/23 11:18:09;;;;;;;;;;;9.10;99.90;;;;;;5073550;28;20434;-56
2022/02/23 11:20:36;;;;;;;;;;;9.20;99.90;;;;;;5073669;28;19973;-55
2022/02/23 11:23:04;;;;;;;;;;;9.40;99.90;;;;;;5073861;28;20008;-55
2022/02/23 11:25:32;;;;;;;;;;;9.50;99.90;;;;;;5073205;28;19921;-54
2022/02/23 11:28:01;;;;;;;;;;;9.40;99.90;;;;;;5072709;28;19972;-57
2022/02/23 11:30:29;;;;;;;;;;;9.50;99.90;;;;;;5073143;28;19924;-52
2022/02/23 11:32:56;;;;;;;;;;;9.50;99.90;;;;;;5072194;28;20007;-55
2022/02/23 11:35:37;;;;;;;;;;;9.70;99.90;;;;;;5073025;28;19920;-57
2022/02/23 11:38:03;;;;;;;;;;;9.70;4.30;;;;;;5073149;28;19966;-57
2022/02/23 11:40:30;;;;;;;;;;;9.80;11.80;;;;;;5073082;28;19920;-55
2022/02/23 11:42:57;;;;;;;;;;;9.80;1.00;;;;;;5072691;28;20370;-55
2022/02/23 11:45:26;;;;;;;;;;;9.90;1.00;;;;;;5073095;28;20278;-58
2022/02/23 11:47:52;;;;;;;;;;;9.90;1.00;;;;;;5072461;28;19928;-55
2022/02/23 11:50:20;;;;;;;;;;;10.10;1.00;;;;;;5073066;28;19920;-54
2022/02/23 11:52:47;;;;;;;;;;;10.10;1.00;;;;;;5072708;28;19920;-54
2022/02/23 11:55:15;;;;;;;;;;;10.20;1.00;;;;;;5072405;28;20386;-57
2022/02/23 11:57:42;;;;;;;;;;;10.20;1.00;;;;;;5072622;28;20383;-57
2022/02/23 12:00:10;;;;;;;;;;;10.20;1.00;;;;;;5072327;28;19924;-54
2022/02/23 12:02:39;;;;;;;;;;;10.30;1.00;;;;;;5072583;28;19959;-55
2022/02/23 12:05:08;;;;;;;;;;;10.20;1.00;;;;;;5072672;28;19920;-57
2022/02/23 12:07:48;;;;;;;;;;;10.20;99.90;;;;;;5072768;28;19924;-57
2022/02/23 12:10:14;;;;;;;;;;;10.10;99.90;;;;;;5072561;28;19960;-56
2022/02/23 12:12:42;;;;;;;;;;;10.30;99.90;;;;;;5072774;28;19924;-56
2022/02/23 12:15:09;;;;;;;;;;;10.40;99.90;;;;;;5072208;28;19974;-53
2022/02/23 12:17:58;;;;;;;;;;;10.30;99.90;;;;;;5072302;28;19946;-55
2022/02/23 12:20:45;;;;;;;;;;;10.50;99.90;;;;;;5072327;28;20550;-58
2022/02/23 12:23:31;;;;;;;;;;;10.50;99.90;;;;;;5072376;28;19974;-53
2022/02/23 12:25:58;;;;;;;;;;;10.50;99.90;;;;;;5071571;28;20374;-54
2022/02/23 12:28:27;;;;;;;;;;;10.60;99.90;;;;;;5072157;28;19920;-53
2022/02/23 12:30:57;;;;;;;;;;;10.60;99.90;;;;;;5071974;28;19932;-56
2022/02/23 12:33:25;;;;;;;;;;;10.50;99.90;;;;;;5072729;28;19928;-55
2022/02/23 12:35:52;;;;;;;;;;;10.60;99.90;;;;;;5071794;28;19920;-56
2022/02/23 12:38:23;;;;;;;;;;;10.50;99.90;;;;;;5071917;28;19966;-54
2022/02/23 12:40:50;;;;;;;;;;;10.50;99.90;;;;;;5072088;28;19920;-56
2022/02/23 12:43:17;;;;;;;;;;;10.50;99.90;;;;;;5071542;28;19947;-52
2022/02/23 12:45:46;;;;;;;;;;;10.50;99.90;;;;;;5072051;28;20330;-53
2022/02/23 12:48:13;;;;;;;;;;;10.50;99.90;;;;;;5071495;28;19920;-54
2022/02/23 12:50:41;;;;;;;;;;;10.60;99.90;;;;;;5071757;28;20424;-56
2022/02/23 12:53:07;;;;;;;;;;;10.70;99.90;;;;;;5071532;28;19921;-54
2022/02/23 12:55:34;;;;;;;;;;;10.90;99.90;;;;;;5071674;28;19920;-57
2022/02/23 12:58:02;;;;;;;;;;;11.00;99.90;;;;;;5070987;28;19924;-52
2022/02/23 13:00:29;;;;;;;;;;;11.00;99.90;;;;;;5071790;28;19920;-54
2022/02/23 13:02:56;;;;;;;;;;;11.10;99.90;;;;;;5072579;28;19975;-56
2022/02/23 13:05:25;;;;;;;;;;;11.10;99.90;;;;;;5071262;28;19921;-58
2022/02/23 13:07:53;;;;;;;;;;;11.20;99.90;;;;;;5071581;28;19921;-58
2022/02/23 13:10:19;;;;;;;;;;;11.30;99.90;;;;;;5063693;28;19920;-58
2022/02/23 13:12:48;;;;;;;;;;;11.30;99.90;;;;;;5071275;28;19928;-59
2022/02/23 13:15:15;;;;;;;;;;;11.40;99.90;;;;;;5070845;28;19975;-56
2022/02/23 13:17:41;;;;;;;;;;;11.50;99.90;;;;;;5071309;28;20302;-58
2022/02/23 13:20:09;;;;;;;;;;;11.60;99.90;;;;;;5070892;28;19920;-58
2022/02/23 13:22:36;;;;;;;;;;;11.70;99.90;;;;;;5071076;28;19921;-63
2022/02/23 13:25:04;;;;;;;;;;;11.70;99.90;;;;;;5070994;28;19927;-53
2022/02/23 13:27:32;;;;;;;;;;;11.70;99.90;;;;;;5071135;28;19920;-56
2022/02/23 13:30:01;;;;;;;;;;;11.50;99.90;;;;;;5071013;28;19966;-55
2022/02/23 13:32:32;;;;;;;;;;;11.40;99.90;;;;;;5071110;28;20384;-55
2022/02/23 13:35:01;;;;;;;;;;;11.50;99.90;;;;;;5070860;28;19921;-56
2022/02/23 13:37:29;;;;;;;;;;;11.50;99.90;;;;;;5070888;28;19921;-52
2022/02/23 13:39:58;;;;;;;;;;;11.20;99.90;;;;;;5071046;28;20023;-53
2022/02/23 13:42:32;;;;;;;;;;;11.30;99.90;;;;;;5071119;28;20366;-60
2022/02/23 13:45:04;;;;;;;;;;;11.40;99.90;;;;;;5071469;28;19927;-60
2022/02/23 13:47:31;;;;;;;;;;;11.40;99.90;;;;;;5071441;28;20298;-62
2022/02/23 13:50:02;;;;;;;;;;;11.30;99.90;;;;;;5070600;28;19920;-57
2022/02/23 13:52:29;;;;;;;;;;;11.30;99.90;;;;;;5070717;28;20378;-54
2022/02/23 13:54:57;;;;;;;;;;;11.30;99.90;;;;;;5071442;28;19920;-55
2022/02/23 13:57:24;;;;;;;;;;;11.20;99.90;;;;;;5074985;28;19920;-55
2022/02/23 13:59:52;;;;;;;;;;;11.30;99.90;;;;;;5074987;28;19920;-54
2022/02/23 14:02:24;;;;;;;;;;;11.10;99.90;;;;;;5074741;28;20282;-55
2022/02/23 14:04:50;;;;;;;;;;;11.00;99.90;;;;;;5075169;28;20014;-55
2022/02/23 14:07:23;;;;;;;;;;;10.90;99.90;;;;;;5074676;28;20057;-56
2022/02/23 14:09:50;;;;;;;;;;;11.10;99.90;;;;;;5075223;28;19920;-53
2022/02/23 14:12:16;;;;;;;;;;;11.10;99.90;;;;;;5075095;28;19920;-54
2022/02/23 14:14:44;;;;;;;;;;;11.10;99.90;;;;;;5074287;28;19920;-56
2022/02/23 14:17:26;;;;;;;;;;;11.00;99.90;;;;;;5074627;28;19921;-56
2022/02/23 14:19:53;;;;;;;;;;;10.90;99.90;;;;;;5074488;28;20298;-56
2022/02/23 14:22:22;;;;;;;;;;;11.00;99.90;;;;;;5074553;28;19920;-55
2022/02/23 14:24:55;;;;;;;;;;;11.00;99.90;;;;;;5074199;28;19927;-56
2022/02/23 14:27:26;;;;;;;;;;;11.00;99.90;;;;;;5074859;28;20382;-57
2022/02/23 14:29:53;;;;;;;;;;;10.70;99.90;;;;;;5075160;28;20379;-56
2022/02/23 14:32:21;;;;;;;;;;;10.70;99.90;;;;;;5075487;28;19921;-56
2022/02/23 14:34:50;;;;;;;;;;;10.70;99.90;;;;;;5074434;28;19966;-56
2022/02/23 14:37:17;;;;;;;;;;;10.60;99.90;;;;;;5074762;28;19932;-55